createdAt,value
2022-10-20T00:01:41.021Z,10.91
2022-10-20T00:05:53.882Z,11.10
2022-10-20T00:10:06.914Z,11.07
2022-10-20T00:14:19.299Z,11.17
2022-10-20T00:18:31.774Z,11.28
2022-10-20T00:22:44.082Z,11.31
2022-10-20T00:26:56.411Z,11.49
2022-10-20T00:31:08.743Z,11.56
2022-10-20T00:35:22.125Z,11.61
2022-10-20T00:39:34.444Z,11.69
2022-10-20T00:43:54.184Z,11.76
2022-10-20T00:48:15.199Z,11.73
2022-10-20T00:52:27.628Z,11.75
2022-10-20T00:56:44.091Z,11.70
2022-10-20T01:00:58.581Z,11.75
2022-10-20T01:05:10.941Z,11.68
2022-10-20T01:09:23.519Z,11.67
2022-10-20T01:13:50.774Z,11.74
2022-10-20T01:18:44.556Z,11.70
2022-10-20T01:23:17.377Z,11.68
2022-10-20T01:27:53.258Z,11.71
2022-10-20T01:32:23.918Z,11.75
2022-10-20T01:36:46.139Z,11.68
2022-10-20T01:41:09.617Z,11.60
2022-10-20T01:45:24.959Z,11.74
2022-10-20T01:49:37.810Z,11.70
2022-10-20T01:53:50.501Z,11.76
2022-10-20T01:58:13.258Z,11.76
2022-10-20T02:02:34.737Z,11.62
2022-10-20T02:06:59.328Z,11.49
2022-10-20T02:11:57.856Z,11.31
2022-10-20T02:16:28.281Z,11.32
2022-10-20T02:20:44.565Z,11.43
2022-10-20T02:24:57.219Z,11.41
2022-10-20T02:29:16.396Z,11.35
2022-10-20T02:33:29.572Z,11.45
2022-10-20T02:37:51.946Z,11.36
2022-10-20T02:42:04.813Z,11.14
2022-10-20T02:46:17.809Z,11.23
2022-10-20T02:50:30.399Z,11.17
2022-10-20T02:54:42.887Z,11.20
2022-10-20T02:58:56.113Z,11.12
2022-10-20T03:03:08.441Z,11.24
2022-10-20T03:07:20.738Z,11.07
2022-10-20T03:11:33.041Z,11.17
2022-10-20T03:15:45.381Z,11.21
2022-10-20T03:19:57.740Z,11.20
2022-10-20T03:24:10.103Z,11.26
2022-10-20T03:28:22.844Z,11.15
2022-10-20T03:32:35.726Z,11.09
2022-10-20T03:36:48.341Z,11.08
2022-10-20T03:41:11.544Z,11.08
2022-10-20T03:45:23.857Z,10.99
2022-10-20T03:49:36.178Z,11.01
2022-10-20T03:53:48.564Z,10.95
2022-10-20T03:58:10.879Z,10.79
2022-10-20T04:02:38.078Z,10.90
2022-10-20T04:06:51.119Z,10.87
2022-10-20T04:11:03.717Z,10.71
2022-10-20T04:15:16.441Z,10.90
2022-10-20T04:19:28.710Z,10.73
2022-10-20T04:23:40.995Z,10.71
2022-10-20T04:27:53.339Z,10.62
2022-10-20T04:32:06.371Z,10.77
2022-10-20T04:36:18.667Z,10.57
2022-10-20T04:40:31.095Z,10.67
2022-10-20T04:44:43.651Z,10.53
2022-10-20T04:48:55.955Z,10.51
2022-10-20T04:53:09.761Z,10.58
2022-10-20T04:57:22.147Z,10.50
2022-10-20T05:01:34.505Z,10.50
2022-10-20T05:05:48.738Z,10.56
2022-10-20T05:10:01.032Z,10.47
2022-10-20T05:14:13.580Z,10.56
2022-10-20T05:18:25.989Z,10.45
2022-10-20T05:22:38.670Z,10.37
2022-10-20T05:26:51.236Z,10.37
2022-10-20T05:31:06.016Z,10.43
2022-10-20T05:35:24.600Z,10.35
2022-10-20T05:39:36.983Z,10.20
2022-10-20T05:43:54.101Z,10.29
2022-10-20T05:48:06.872Z,10.09
2022-10-20T05:52:21.448Z,10.13
2022-10-20T05:56:35.084Z,10.07
2022-10-20T06:00:53.479Z,10.03
2022-10-20T06:05:05.933Z,10.04
2022-10-20T06:09:19.507Z,10.14
2022-10-20T06:13:33.863Z,10.05
2022-10-20T06:17:47.757Z,10.19
2022-10-20T06:22:03.921Z,10.01
2022-10-20T06:26:22.425Z,10.15
2022-10-20T06:30:34.705Z,10.07
2022-10-20T06:34:57.001Z,10.00
2022-10-20T06:39:18.331Z,10.01
2022-10-20T06:43:40.800Z,10.03
2022-10-20T06:47:53.069Z,10.15
2022-10-20T06:52:05.595Z,10.30
2022-10-20T06:56:24.481Z,10.45
2022-10-20T07:00:36.750Z,10.61
2022-10-20T07:04:51.061Z,10.48
2022-10-20T07:09:05.250Z,10.85
2022-10-20T07:13:17.561Z,10.68
2022-10-20T07:17:30.377Z,10.79
2022-10-20T07:21:45.469Z,11.00
2022-10-20T07:26:05.993Z,11.22
2022-10-20T07:30:18.485Z,11.48
2022-10-20T07:34:30.775Z,11.26
2022-10-20T07:38:43.820Z,11.43
2022-10-20T07:42:56.138Z,11.52
2022-10-20T07:47:08.464Z,11.73
2022-10-20T07:51:20.742Z,11.81
2022-10-20T07:55:39.170Z,11.75
2022-10-20T07:59:51.781Z,11.05
2022-10-20T08:04:04.915Z,11.47
2022-10-20T08:08:17.243Z,11.90
2022-10-20T08:12:29.537Z,11.60
2022-10-20T08:16:45.770Z,11.53
2022-10-20T08:21:10.232Z,11.75
2022-10-20T08:25:22.855Z,11.60
2022-10-20T08:29:35.392Z,11.69
2022-10-20T08:33:52.321Z,11.80
2022-10-20T08:38:07.747Z,11.68
2022-10-20T08:42:20.060Z,11.51
2022-10-20T08:46:37.223Z,11.57
2022-10-20T08:50:52.327Z,12.09
2022-10-20T08:55:06.271Z,12.54
2022-10-20T08:59:27.965Z,13.19
2022-10-20T09:03:40.463Z,13.42
2022-10-20T09:07:53.415Z,13.56
2022-10-20T09:12:08.598Z,14.21
2022-10-20T09:16:40.861Z,14.24
2022-10-20T09:21:08.321Z,13.97
2022-10-20T09:25:24.836Z,14.20
2022-10-20T09:29:39.596Z,14.79
2022-10-20T09:33:51.938Z,15.27
2022-10-20T09:38:23.294Z,15.47
2022-10-20T09:42:41.591Z,15.43
2022-10-20T09:46:55.268Z,15.72
2022-10-20T09:51:16.003Z,16.01
2022-10-20T09:55:35.005Z,16.35
2022-10-20T09:59:48.870Z,16.67
2022-10-20T10:04:02.753Z,16.88
2022-10-20T10:08:16.352Z,17.13
2022-10-20T10:12:30.513Z,17.45
2022-10-20T10:16:43.912Z,17.77
2022-10-20T10:21:02.928Z,18.33
2022-10-20T10:25:26.667Z,18.63
2022-10-20T10:29:47.124Z,18.54
2022-10-20T10:34:26.448Z,18.34
2022-10-20T10:38:39.585Z,17.82
2022-10-20T10:43:03.779Z,16.94
2022-10-20T10:47:42.153Z,17.76
2022-10-20T10:52:21.041Z,17.85
2022-10-20T10:56:44.978Z,18.41
2022-10-20T11:01:30.266Z,19.02
2022-10-20T11:06:13.516Z,19.14
2022-10-20T11:10:31.820Z,19.83
2022-10-20T11:15:27.664Z,19.83
2022-10-20T11:19:53.721Z,18.63
2022-10-20T11:24:43.659Z,18.86
2022-10-20T11:28:58.923Z,18.73
2022-10-20T11:33:20.333Z,19.14
2022-10-20T11:37:40.269Z,18.38
2022-10-20T11:42:00.406Z,18.52
2022-10-20T11:46:22.715Z,18.44
2022-10-20T11:50:36.355Z,18.31
2022-10-20T11:54:57.749Z,18.34
2022-10-20T11:59:15.988Z,17.83
2022-10-20T12:03:59.015Z,17.86
2022-10-20T12:08:49.202Z,18.28
2022-10-20T12:13:13.412Z,18.37
2022-10-20T12:17:37.053Z,18.82
2022-10-20T12:22:06.479Z,18.15
2022-10-20T12:26:30.903Z,18.22
2022-10-20T12:30:45.193Z,18.58
2022-10-20T12:34:58.445Z,19.58
2022-10-20T12:39:21.547Z,20.06
2022-10-20T12:43:51.770Z,19.77
2022-10-20T12:48:05.949Z,19.10
2022-10-20T12:52:22.807Z,18.40
2022-10-20T12:56:39.854Z,18.58
2022-10-20T13:00:52.129Z,19.15
2022-10-20T13:05:04.457Z,19.01
2022-10-20T13:09:22.258Z,18.44
2022-10-20T13:13:48.879Z,18.08
2022-10-20T13:18:04.937Z,18.37
2022-10-20T13:23:02.193Z,18.57
2022-10-20T13:27:17.074Z,18.74
2022-10-20T13:31:41.273Z,18.60
2022-10-20T13:36:02.628Z,18.16
2022-10-20T13:40:23.916Z,17.68
2022-10-20T13:45:20.781Z,17.59
2022-10-20T13:50:06.793Z,16.86
2022-10-20T13:54:25.777Z,16.95
2022-10-20T13:58:38.190Z,17.07
2022-10-20T14:02:55.146Z,16.72
2022-10-20T14:07:16.730Z,16.65
2022-10-20T14:11:32.990Z,16.44
2022-10-20T14:15:57.179Z,16.64
2022-10-20T14:20:21.775Z,16.48
2022-10-20T14:24:41.129Z,16.43
2022-10-20T14:28:54.018Z,16.17
2022-10-20T14:33:13.382Z,16.15
2022-10-20T14:37:45.616Z,16.16
2022-10-20T14:42:25.901Z,16.03
2022-10-20T14:46:47.559Z,15.93
2022-10-20T14:50:59.935Z,15.83
2022-10-20T14:55:47.654Z,15.79
2022-10-20T15:00:05.463Z,15.70
2022-10-20T15:04:25.232Z,15.63
2022-10-20T15:08:37.664Z,15.51
2022-10-20T15:12:52.932Z,15.62
2022-10-20T15:17:05.296Z,15.63
2022-10-20T15:21:17.594Z,15.82
2022-10-20T15:25:33.019Z,15.85
2022-10-20T15:29:50.874Z,15.52
2022-10-20T15:34:04.489Z,15.47
2022-10-20T15:38:27.057Z,15.13
2022-10-20T15:42:39.616Z,14.90
2022-10-20T15:46:55.745Z,14.66
2022-10-20T15:51:21.468Z,14.49
2022-10-20T15:55:40.262Z,14.27
2022-10-20T15:59:52.595Z,14.20
2022-10-20T16:04:20.941Z,13.93
2022-10-20T16:08:33.266Z,13.81
2022-10-20T16:12:45.680Z,13.77
2022-10-20T16:17:00.786Z,13.57
2022-10-20T16:21:13.227Z,13.65
2022-10-20T16:25:25.539Z,13.46
2022-10-20T16:29:37.871Z,13.38
2022-10-20T16:33:50.132Z,13.37
2022-10-20T16:38:02.435Z,13.37
2022-10-20T16:42:14.736Z,13.35
2022-10-20T16:46:27.024Z,13.39
2022-10-20T16:50:43.097Z,13.37
2022-10-20T16:54:55.397Z,13.29
2022-10-20T16:59:07.740Z,13.41
2022-10-20T17:03:22.821Z,13.31
2022-10-20T17:07:35.569Z,13.17
2022-10-20T17:11:48.329Z,13.19
2022-10-20T17:16:06.939Z,13.09
2022-10-20T17:20:19.384Z,13.05
2022-10-20T17:24:41.753Z,12.94
2022-10-20T17:28:56.172Z,12.98
2022-10-20T17:33:09.775Z,13.02
2022-10-20T17:37:22.599Z,12.82
2022-10-20T17:41:40.555Z,12.74
2022-10-20T17:46:03.521Z,12.66
2022-10-20T17:50:15.879Z,12.59
2022-10-20T17:54:28.199Z,12.61
2022-10-20T17:58:47.572Z,12.54
2022-10-20T18:02:59.922Z,12.46
2022-10-20T18:07:22.252Z,12.51
2022-10-20T18:11:36.144Z,12.51
2022-10-20T18:15:48.533Z,12.59
2022-10-20T18:20:00.935Z,12.49
2022-10-20T18:24:15.327Z,12.60
2022-10-20T18:28:27.783Z,12.55
2022-10-20T18:32:40.452Z,12.58
2022-10-20T18:36:55.869Z,12.50
2022-10-20T18:41:13.610Z,12.51
2022-10-20T18:45:26.149Z,12.43
2022-10-20T18:49:38.505Z,12.37
2022-10-20T18:53:55.563Z,12.43
2022-10-20T18:58:07.926Z,12.39
2022-10-20T19:02:20.222Z,12.26
2022-10-20T19:06:35.829Z,12.09
2022-10-20T19:10:57.770Z,12.15
2022-10-20T19:15:10.269Z,12.02
2022-10-20T19:19:23.583Z,11.93
2022-10-20T19:23:41.977Z,11.97
2022-10-20T19:27:54.339Z,11.92
2022-10-20T19:32:07.543Z,11.83
2022-10-20T19:36:20.317Z,11.88
2022-10-20T19:40:40.192Z,11.74
2022-10-20T19:44:53.693Z,11.77
2022-10-20T19:53:20.300Z,11.73
2022-10-20T19:57:32.746Z,11.67
2022-10-20T20:01:45.188Z,11.71
2022-10-20T20:06:04.557Z,11.68
2022-10-20T20:10:16.882Z,11.67
2022-10-20T20:14:39.053Z,11.63
2022-10-20T20:18:51.493Z,11.61
2022-10-20T20:23:03.769Z,11.57
2022-10-20T20:27:16.069Z,11.51
2022-10-20T20:31:29.289Z,11.44
2022-10-20T20:35:41.606Z,11.34
2022-10-20T20:39:54.007Z,11.35
2022-10-20T20:44:08.522Z,11.31
2022-10-20T20:48:21.124Z,11.39
2022-10-20T20:52:33.483Z,11.47
2022-10-20T20:56:45.770Z,11.52
2022-10-20T21:01:06.837Z,11.60
2022-10-20T21:05:19.185Z,11.47
2022-10-20T21:09:31.630Z,11.37
2022-10-20T21:13:45.339Z,11.32
2022-10-20T21:17:57.647Z,11.32
2022-10-20T21:22:10.287Z,11.27
2022-10-20T21:26:23.463Z,11.25
2022-10-20T21:30:35.777Z,11.12
2022-10-20T21:34:48.356Z,11.24
2022-10-20T21:39:00.959Z,11.27
2022-10-20T21:43:14.911Z,11.25
2022-10-20T21:47:27.489Z,11.26
2022-10-20T21:51:42.985Z,11.31
2022-10-20T21:55:55.315Z,11.44
2022-10-20T22:00:09.372Z,11.45
2022-10-20T22:04:24.436Z,11.43
2022-10-20T22:08:41.291Z,11.45
2022-10-20T22:12:53.623Z,11.50
2022-10-20T22:17:06.032Z,11.57
2022-10-20T22:21:18.948Z,11.58
2022-10-20T22:25:31.245Z,11.59
2022-10-20T22:29:43.554Z,11.53
2022-10-20T22:33:57.513Z,11.63
2022-10-20T22:38:17.040Z,11.64
2022-10-20T22:42:29.354Z,11.68
2022-10-20T22:46:41.702Z,11.80
2022-10-20T22:50:54.251Z,11.80
2022-10-20T22:55:07.695Z,11.73
2022-10-20T22:59:20.202Z,11.75
2022-10-20T23:03:32.491Z,11.95
2022-10-20T23:07:45.023Z,11.60
2022-10-20T23:11:57.348Z,11.72
2022-10-20T23:16:11.041Z,11.65
2022-10-20T23:20:28.652Z,11.61
2022-10-20T23:24:40.938Z,11.55
2022-10-20T23:28:53.906Z,11.54
2022-10-20T23:33:06.302Z,11.58
2022-10-20T23:37:20.567Z,11.52
2022-10-20T23:41:32.906Z,11.66
2022-10-20T23:45:45.240Z,11.67
2022-10-20T23:49:57.656Z,11.76
2022-10-20T23:54:09.965Z,11.77
2022-10-20T23:58:23.422Z,11.77
